createdAt,value
2018-06-14T00:00:46.364Z,3.40
2018-06-14T00:02:49.925Z,3.60
2018-06-14T00:04:53.188Z,3.60
2018-06-14T00:06:56.744Z,3.03
2018-06-14T00:09:00.268Z,3.37
2018-06-14T00:11:03.845Z,3.77
2018-06-14T00:13:07.526Z,3.57
2018-06-14T00:15:11.520Z,3.50
2018-06-14T00:17:15.084Z,3.70
2018-06-14T00:19:18.628Z,3.50
2018-06-14T00:21:22.159Z,3.23
2018-06-14T00:23:25.693Z,3.37
2018-06-14T00:25:29.180Z,3.30
2018-06-14T00:27:32.697Z,3.50
2018-06-14T00:29:36.204Z,3.07
2018-06-14T00:31:39.688Z,3.20
2018-06-14T00:33:43.251Z,3.70
2018-06-14T00:35:46.896Z,3.80
2018-06-14T00:37:50.533Z,3.43
2018-06-14T00:39:54.015Z,3.40
2018-06-14T00:41:57.503Z,3.63
2018-06-14T00:44:01.016Z,4.20
2018-06-14T00:46:04.555Z,3.57
2018-06-14T00:48:08.130Z,3.53
2018-06-14T00:50:11.655Z,4.07
2018-06-14T00:52:15.170Z,4.20
2018-06-14T00:54:18.674Z,4.00
2018-06-14T00:56:22.194Z,3.50
2018-06-14T00:58:25.796Z,3.70
2018-06-14T01:00:29.316Z,4.00
2018-06-14T01:02:34.199Z,3.67
2018-06-14T01:04:37.716Z,3.40
2018-06-14T01:06:41.234Z,3.63
2018-06-14T01:08:44.803Z,3.63
2018-06-14T01:10:48.294Z,3.80
2018-06-14T01:12:51.840Z,3.80
2018-06-14T01:14:55.344Z,3.90
2018-06-14T01:16:58.886Z,3.80
2018-06-14T01:19:02.586Z,3.73
2018-06-14T01:21:06.099Z,4.57
2018-06-14T01:23:09.870Z,4.17
2018-06-14T01:25:13.382Z,4.00
2018-06-14T01:27:16.899Z,4.20
2018-06-14T01:29:20.690Z,4.23
2018-06-14T01:31:24.204Z,4.80
2018-06-14T01:33:27.704Z,4.20
2018-06-14T01:35:31.227Z,3.93
2018-06-14T01:37:45.939Z,4.27
2018-06-14T01:39:49.451Z,4.10
2018-06-14T01:41:53.012Z,4.30
2018-06-14T01:43:56.586Z,4.43
2018-06-14T01:46:00.079Z,4.20
2018-06-14T01:48:03.641Z,4.13
2018-06-14T01:50:07.146Z,4.47
2018-06-14T01:52:10.801Z,4.40
2018-06-14T01:54:14.310Z,4.30
2018-06-14T01:56:17.900Z,4.20
2018-06-14T01:58:21.395Z,4.40
2018-06-14T02:00:24.992Z,4.10
2018-06-14T02:02:28.672Z,4.53
2018-06-14T02:04:32.175Z,4.60
2018-06-14T02:06:35.723Z,4.37
2018-06-14T02:08:39.241Z,4.23
2018-06-14T02:10:42.747Z,4.13
2018-06-14T02:12:46.221Z,3.60
2018-06-14T02:14:49.730Z,3.83
2018-06-14T02:16:53.282Z,4.43
2018-06-14T02:18:56.823Z,4.13
2018-06-14T02:21:00.348Z,4.53
2018-06-14T02:23:03.868Z,3.67
2018-06-14T02:25:07.607Z,4.10
2018-06-14T02:27:11.280Z,3.93
2018-06-14T02:29:17.607Z,4.03
2018-06-14T02:31:21.247Z,3.50
2018-06-14T02:33:24.765Z,4.10
2018-06-14T02:35:28.279Z,4.00
2018-06-14T02:37:35.992Z,4.77
2018-06-14T02:39:39.564Z,3.83
2018-06-14T02:41:43.173Z,4.17
2018-06-14T02:43:46.775Z,4.07
2018-06-14T02:45:50.351Z,4.03
2018-06-14T02:47:53.887Z,3.97
2018-06-14T02:49:57.410Z,4.50
2018-06-14T02:52:00.917Z,4.07
2018-06-14T02:54:04.431Z,3.80
2018-06-14T02:56:07.969Z,4.00
2018-06-14T02:58:11.465Z,3.97
2018-06-14T03:00:15.024Z,4.60
2018-06-14T03:02:18.578Z,3.90
2018-06-14T03:04:22.052Z,4.20
2018-06-14T03:06:25.669Z,4.03
2018-06-14T03:08:29.210Z,4.03
2018-06-14T03:10:32.785Z,3.90
2018-06-14T03:12:36.298Z,3.90
2018-06-14T03:14:39.788Z,3.80
2018-06-14T03:16:43.288Z,4.17
2018-06-14T03:18:46.848Z,4.00
2018-06-14T03:20:50.410Z,4.67
2018-06-14T03:22:54.990Z,5.50
2018-06-14T03:24:58.488Z,4.77
2018-06-14T03:27:02.015Z,4.90
2018-06-14T03:29:05.827Z,4.60
2018-06-14T03:31:09.387Z,5.13
2018-06-14T03:33:12.892Z,4.50
2018-06-14T03:35:16.455Z,4.87
2018-06-14T03:37:19.956Z,4.93
2018-06-14T03:39:23.566Z,4.30
2018-06-14T03:41:27.153Z,4.37
2018-06-14T03:43:30.651Z,4.77
2018-06-14T03:45:34.218Z,4.87
2018-06-14T03:47:37.684Z,4.27
2018-06-14T03:49:42.174Z,4.33
2018-06-14T03:51:45.828Z,4.60
2018-06-14T03:53:49.376Z,4.70
2018-06-14T03:55:53.051Z,4.43
2018-06-14T03:57:56.656Z,4.43
2018-06-14T04:00:00.280Z,4.40
2018-06-14T04:02:04.194Z,4.23
2018-06-14T04:04:07.827Z,4.40
2018-06-14T04:06:11.444Z,5.00
2018-06-14T04:08:15.005Z,5.03
2018-06-14T04:10:18.554Z,4.90
2018-06-14T04:12:22.128Z,4.17
2018-06-14T04:14:25.632Z,4.20
2018-06-14T04:16:28.910Z,4.30
2018-06-14T04:18:32.478Z,4.40
2018-06-14T04:20:36.005Z,4.43
2018-06-14T04:22:39.637Z,4.17
2018-06-14T04:24:43.272Z,4.27
2018-06-14T04:26:47.023Z,3.93
2018-06-14T04:28:50.504Z,4.90
2018-06-14T04:30:54.003Z,4.40
2018-06-14T04:32:57.501Z,4.60
2018-06-14T04:35:01.078Z,5.10
2018-06-14T04:37:04.614Z,4.83
2018-06-14T04:39:09.828Z,4.97
2018-06-14T04:41:13.412Z,5.13
2018-06-14T04:43:16.905Z,4.83
2018-06-14T04:45:20.643Z,4.67
2018-06-14T04:47:24.224Z,5.20
2018-06-14T04:49:27.378Z,5.17
2018-06-14T04:51:31.112Z,5.33
2018-06-14T04:53:38.786Z,5.50
2018-06-14T04:55:42.274Z,5.40
2018-06-14T04:57:45.774Z,5.23
2018-06-14T04:59:49.334Z,5.30
2018-06-14T05:01:52.870Z,4.97
2018-06-14T05:03:56.445Z,5.10
2018-06-14T05:06:00.173Z,5.07
2018-06-14T05:08:03.350Z,5.30
2018-06-14T05:10:06.885Z,5.50
2018-06-14T05:12:11.168Z,5.37
2018-06-14T05:14:14.689Z,4.87
2018-06-14T05:16:18.215Z,5.20
2018-06-14T05:18:22.956Z,5.87
2018-06-14T05:20:26.542Z,5.83
2018-06-14T05:22:30.243Z,6.10
2018-06-14T05:24:33.759Z,5.40
2018-06-14T05:26:37.385Z,6.27
2018-06-14T05:28:40.913Z,6.07
2018-06-14T05:30:45.172Z,6.57
2018-06-14T05:32:48.792Z,6.43
2018-06-14T05:34:52.376Z,5.87
2018-06-14T05:36:56.555Z,7.60
2018-06-14T05:39:00.060Z,6.33
2018-06-14T05:41:03.578Z,6.10
2018-06-14T05:43:07.288Z,7.13
2018-06-14T05:45:10.787Z,6.20
2018-06-14T05:47:14.078Z,6.67
2018-06-14T05:49:17.255Z,6.63
2018-06-14T05:51:20.796Z,6.70
2018-06-14T05:53:24.291Z,6.47
2018-06-14T05:55:27.805Z,6.57
2018-06-14T05:57:31.295Z,6.80
2018-06-14T05:59:34.779Z,7.07
2018-06-14T06:01:38.292Z,6.27
2018-06-14T06:03:41.827Z,6.60
2018-06-14T06:05:45.388Z,6.37
2018-06-14T06:07:49.339Z,6.33
2018-06-14T06:09:52.503Z,6.03
2018-06-14T06:11:56.037Z,6.43
2018-06-14T06:13:59.736Z,5.87
2018-06-14T06:16:03.232Z,6.03
2018-06-14T06:18:06.741Z,6.23
2018-06-14T06:20:15.699Z,5.53
2018-06-14T06:22:19.371Z,5.20
2018-06-14T06:24:22.858Z,4.87
2018-06-14T06:26:26.459Z,5.40
2018-06-14T06:28:29.887Z,5.93
2018-06-14T06:30:33.659Z,5.67
2018-06-14T06:32:37.197Z,5.07
2018-06-14T06:34:40.669Z,4.80
2018-06-14T06:36:44.152Z,5.57
2018-06-14T06:38:47.778Z,5.47
2018-06-14T06:40:51.192Z,6.00
2018-06-14T06:42:54.732Z,5.60
2018-06-14T06:44:58.267Z,5.37
2018-06-14T06:47:02.048Z,5.43
2018-06-14T06:49:05.593Z,4.97
2018-06-14T06:51:09.076Z,4.90
2018-06-14T06:53:12.318Z,5.70
2018-06-14T06:55:15.767Z,4.90
2018-06-14T06:57:19.548Z,5.17
2018-06-14T06:59:23.047Z,5.50
2018-06-14T07:01:26.550Z,5.17
2018-06-14T07:03:30.087Z,6.03
2018-06-14T07:05:33.567Z,4.93
2018-06-14T07:07:37.086Z,4.63
2018-06-14T07:09:40.658Z,4.50
2018-06-14T07:11:43.835Z,5.17
2018-06-14T07:13:46.987Z,4.10
2018-06-14T07:15:50.484Z,4.77
2018-06-14T07:17:53.946Z,4.33
2018-06-14T07:19:57.513Z,5.60
2018-06-14T07:22:01.225Z,5.10
2018-06-14T07:24:04.984Z,5.17
2018-06-14T07:26:08.459Z,4.87
2018-06-14T07:28:11.958Z,4.67
2018-06-14T07:30:15.431Z,4.17
2018-06-14T07:32:18.967Z,3.20
2018-06-14T07:34:22.463Z,4.10
2018-06-14T07:36:26.020Z,3.53
2018-06-14T07:38:29.591Z,3.70
2018-06-14T07:40:33.118Z,3.47
2018-06-14T07:42:36.616Z,3.37
2018-06-14T07:44:40.143Z,3.27
2018-06-14T07:46:43.663Z,3.30
2018-06-14T07:48:47.163Z,2.73
2018-06-14T07:50:50.672Z,3.50
2018-06-14T07:52:54.248Z,3.73
2018-06-14T07:54:57.845Z,3.60
2018-06-14T07:57:01.443Z,3.70
2018-06-14T07:59:04.974Z,3.70
2018-06-14T08:01:08.496Z,3.10
2018-06-14T08:03:11.995Z,3.73
2018-06-14T08:05:15.811Z,2.50
2018-06-14T08:07:19.476Z,2.90
2018-06-14T08:09:22.995Z,3.13
2018-06-14T08:11:26.456Z,2.60
2018-06-14T08:13:30.021Z,2.07
2018-06-14T08:15:33.552Z,2.00
2018-06-14T08:17:37.067Z,2.70
2018-06-14T08:19:40.652Z,2.50
2018-06-14T08:21:44.140Z,2.30
2018-06-14T08:23:47.671Z,2.53
2018-06-14T08:25:51.216Z,2.40
2018-06-14T08:27:54.812Z,2.53
2018-06-14T08:29:58.320Z,2.63
2018-06-14T08:32:01.825Z,2.50
2018-06-14T08:34:05.320Z,3.07
2018-06-14T08:36:08.795Z,2.10
2018-06-14T08:38:12.284Z,2.43
2018-06-14T08:40:15.772Z,2.30
2018-06-14T08:42:19.258Z,2.50
2018-06-14T08:44:22.817Z,1.90
2018-06-14T08:46:26.331Z,1.80
2018-06-14T08:48:29.891Z,2.17
2018-06-14T08:50:33.386Z,2.00
2018-06-14T08:52:36.868Z,2.50
2018-06-14T08:54:40.475Z,2.50
2018-06-14T08:56:44.024Z,2.23
2018-06-14T08:58:47.543Z,2.20
2018-06-14T09:00:51.143Z,2.10
2018-06-14T09:02:54.747Z,2.43
2018-06-14T09:04:58.288Z,2.30
2018-06-14T09:07:01.749Z,2.33
2018-06-14T09:09:07.651Z,2.00
2018-06-14T09:11:11.132Z,2.10
2018-06-14T09:13:14.608Z,2.53
2018-06-14T09:15:18.156Z,2.20
2018-06-14T09:17:21.881Z,2.00
2018-06-14T09:19:25.543Z,2.10
2018-06-14T09:21:29.077Z,2.03
2018-06-14T09:23:32.615Z,2.00
2018-06-14T09:25:36.091Z,2.10
2018-06-14T09:27:39.575Z,2.03
2018-06-14T09:29:43.272Z,2.00
2018-06-14T09:31:47.063Z,2.40
2018-06-14T09:33:50.655Z,2.60
2018-06-14T09:35:54.245Z,2.33
2018-06-14T09:37:57.688Z,1.90
2018-06-14T09:40:01.244Z,2.43
2018-06-14T09:42:04.399Z,1.90
2018-06-14T09:44:07.955Z,2.00
2018-06-14T09:46:11.552Z,2.20
2018-06-14T09:48:15.101Z,2.00
2018-06-14T09:50:18.663Z,2.17
2018-06-14T09:52:22.157Z,2.50
2018-06-14T09:54:25.657Z,2.43
2018-06-14T09:56:29.202Z,2.50
2018-06-14T09:58:32.911Z,2.30
2018-06-14T10:00:36.442Z,2.30
2018-06-14T10:02:40.590Z,2.90
2018-06-14T10:04:44.135Z,2.33
2018-06-14T10:06:47.663Z,2.20
2018-06-14T10:08:51.136Z,2.20
2018-06-14T10:10:54.680Z,3.23
2018-06-14T10:12:58.139Z,2.93
2018-06-14T10:15:01.614Z,2.70
2018-06-14T10:17:05.512Z,2.80
2018-06-14T10:19:09.083Z,2.80
2018-06-14T10:21:12.774Z,2.37
2018-06-14T10:23:16.245Z,2.30
2018-06-14T10:25:19.727Z,2.53
2018-06-14T10:27:23.277Z,3.13
2018-06-14T10:29:26.837Z,2.63
2018-06-14T10:31:30.319Z,2.53
2018-06-14T10:33:33.891Z,2.57
2018-06-14T10:35:37.414Z,2.33
2018-06-14T10:37:40.952Z,2.50
2018-06-14T10:39:44.463Z,2.70
2018-06-14T10:41:47.968Z,2.50
2018-06-14T10:43:51.464Z,2.60
2018-06-14T10:45:55.183Z,3.50
2018-06-14T10:47:58.706Z,3.77
2018-06-14T10:50:02.193Z,3.33
2018-06-14T10:52:05.646Z,3.23
2018-06-14T10:54:09.094Z,3.47
2018-06-14T10:56:12.584Z,3.20
2018-06-14T10:58:16.053Z,3.37
2018-06-14T11:00:19.796Z,2.70
2018-06-14T11:02:23.407Z,2.77
2018-06-14T11:04:26.918Z,3.27
2018-06-14T11:06:30.421Z,2.97
2018-06-14T11:08:33.900Z,3.20
2018-06-14T11:10:37.524Z,3.03
2018-06-14T11:12:41.125Z,2.83
2018-06-14T11:14:44.718Z,2.93
2018-06-14T11:16:48.227Z,2.73
2018-06-14T11:18:51.751Z,3.03
2018-06-14T11:20:55.315Z,3.20
2018-06-14T11:22:58.988Z,2.60
2018-06-14T11:25:03.146Z,2.80
2018-06-14T11:27:06.646Z,2.97
2018-06-14T11:29:10.177Z,2.40
2018-06-14T11:31:13.792Z,2.70
2018-06-14T11:33:17.262Z,2.73
2018-06-14T11:35:20.739Z,2.40
2018-06-14T11:37:24.964Z,3.17
2018-06-14T11:39:28.456Z,2.67
2018-06-14T11:41:31.992Z,2.70
2018-06-14T11:43:35.462Z,2.77
2018-06-14T11:45:38.939Z,2.77
2018-06-14T11:47:42.129Z,2.80
2018-06-14T11:49:45.671Z,3.03
2018-06-14T11:51:49.295Z,2.97
2018-06-14T11:53:52.863Z,2.47
2018-06-14T11:55:56.397Z,2.77
2018-06-14T11:57:59.977Z,2.70
2018-06-14T12:00:03.601Z,2.90
2018-06-14T12:02:06.778Z,3.03
2018-06-14T12:04:10.283Z,2.90
2018-06-14T12:06:13.804Z,2.53
2018-06-14T12:08:17.332Z,2.43
2018-06-14T12:10:20.824Z,2.67
2018-06-14T12:12:24.331Z,3.50
2018-06-14T12:14:27.869Z,3.30
2018-06-14T12:16:31.344Z,2.67
2018-06-14T12:18:34.984Z,2.40
2018-06-14T12:20:38.445Z,2.43
2018-06-14T12:22:42.169Z,3.03
2018-06-14T12:24:45.635Z,2.73
2018-06-14T12:26:49.192Z,2.60
2018-06-14T12:28:52.689Z,2.67
2018-06-14T12:30:56.187Z,2.40
2018-06-14T12:33:00.039Z,2.50
2018-06-14T12:35:07.527Z,2.23
2018-06-14T12:37:11.095Z,2.73
2018-06-14T12:39:21.085Z,2.33
2018-06-14T12:41:24.583Z,2.80
2018-06-14T12:43:28.092Z,2.60
2018-06-14T12:45:31.771Z,2.60
2018-06-14T12:47:35.300Z,2.50
2018-06-14T12:49:38.795Z,2.70
2018-06-14T12:51:42.299Z,2.60
2018-06-14T12:53:45.864Z,2.33
2018-06-14T12:55:49.338Z,2.80
2018-06-14T12:57:53.346Z,2.40
2018-06-14T12:59:56.730Z,2.67
2018-06-14T13:02:00.245Z,2.40
2018-06-14T13:04:03.903Z,2.60
2018-06-14T13:06:07.384Z,2.77
2018-06-14T13:08:10.983Z,2.63
2018-06-14T13:10:14.454Z,2.63
2018-06-14T13:12:18.063Z,2.70
2018-06-14T13:14:21.608Z,2.63
2018-06-14T13:16:25.133Z,2.80
2018-06-14T13:18:28.653Z,3.10
2018-06-14T13:20:32.155Z,3.23
2018-06-14T13:22:35.674Z,3.57
2018-06-14T13:24:42.552Z,3.77
2018-06-14T13:26:46.048Z,3.33
2018-06-14T13:28:49.583Z,3.67
2018-06-14T13:30:53.428Z,3.53
2018-06-14T13:32:56.983Z,3.30
2018-06-14T13:35:00.499Z,3.30
2018-06-14T13:37:04.048Z,3.40
2018-06-14T13:39:08.375Z,3.63
2018-06-14T13:41:11.824Z,3.30
2018-06-14T13:43:15.368Z,3.80
2018-06-14T13:45:18.882Z,3.30
2018-06-14T13:47:22.396Z,2.90
2018-06-14T13:49:25.900Z,2.87
2018-06-14T13:51:29.514Z,3.33
2018-06-14T13:53:33.016Z,2.90
2018-06-14T13:55:36.629Z,2.70
2018-06-14T13:57:40.112Z,3.67
2018-06-14T13:59:43.627Z,2.90
2018-06-14T14:01:47.184Z,2.70
2018-06-14T14:03:50.722Z,2.87
2018-06-14T14:05:54.218Z,3.10
2018-06-14T14:07:57.794Z,3.10
2018-06-14T14:10:01.255Z,3.10
2018-06-14T14:12:05.927Z,2.80
2018-06-14T14:14:09.489Z,3.30
2018-06-14T14:16:12.983Z,2.57
2018-06-14T14:18:16.576Z,2.63
2018-06-14T14:20:20.079Z,2.93
2018-06-14T14:22:23.548Z,2.70
2018-06-14T14:24:27.056Z,2.60
2018-06-14T14:26:31.396Z,2.40
2018-06-14T14:28:34.901Z,3.00
2018-06-14T14:30:38.380Z,3.07
2018-06-14T14:32:41.927Z,2.67
2018-06-14T14:34:45.451Z,2.43
2018-06-14T14:36:48.933Z,2.50
2018-06-14T14:38:52.487Z,2.50
2018-06-14T14:40:56.067Z,2.53
2018-06-14T14:42:59.588Z,2.10
2018-06-14T14:45:03.250Z,2.23
2018-06-14T14:47:06.715Z,2.40
2018-06-14T14:49:11.906Z,2.67
2018-06-14T14:51:15.386Z,2.77
2018-06-14T14:53:18.933Z,2.40
2018-06-14T14:55:22.980Z,2.10
2018-06-14T14:57:26.552Z,2.93
2018-06-14T14:59:30.176Z,2.40
2018-06-14T15:01:33.735Z,2.03
2018-06-14T15:03:37.213Z,2.60
2018-06-14T15:05:40.787Z,2.30
2018-06-14T15:07:44.261Z,2.67
2018-06-14T15:09:47.783Z,2.70
2018-06-14T15:11:51.540Z,2.60
2018-06-14T15:13:55.179Z,2.40
2018-06-14T15:15:58.651Z,2.50
2018-06-14T15:18:02.196Z,2.57
2018-06-14T15:20:05.811Z,2.63
2018-06-14T15:22:09.703Z,2.80
2018-06-14T15:24:13.214Z,2.60
2018-06-14T15:26:16.711Z,2.90
2018-06-14T15:28:20.239Z,2.40
2018-06-14T15:30:23.735Z,2.20
2018-06-14T15:32:27.220Z,2.37
2018-06-14T15:34:30.732Z,2.60
2018-06-14T15:36:34.221Z,2.80
2018-06-14T15:38:37.708Z,2.30
2018-06-14T15:40:41.227Z,2.43
2018-06-14T15:42:44.684Z,2.47
2018-06-14T15:44:48.287Z,2.40
2018-06-14T15:46:51.853Z,2.40
2018-06-14T15:48:55.457Z,2.20
2018-06-14T15:50:59.292Z,2.60
2018-06-14T15:53:02.764Z,2.20
2018-06-14T15:55:17.529Z,2.47
2018-06-14T15:57:22.007Z,2.30
2018-06-14T15:59:25.507Z,2.40
2018-06-14T16:01:28.992Z,2.37
2018-06-14T16:03:32.475Z,2.30
2018-06-14T16:05:36.008Z,2.40
2018-06-14T16:07:39.563Z,2.47
2018-06-14T16:09:43.155Z,2.65
2018-06-14T16:11:46.631Z,2.33
2018-06-14T16:13:50.196Z,2.25
2018-06-14T16:15:53.712Z,2.33
2018-06-14T16:17:57.206Z,2.58
2018-06-14T16:20:00.810Z,2.15
2018-06-14T16:22:04.409Z,1.92
2018-06-14T16:24:07.917Z,2.35
2018-06-14T16:26:11.452Z,2.08
2018-06-14T16:28:14.918Z,2.12
2018-06-14T16:30:18.499Z,1.95
2018-06-14T16:32:22.043Z,2.20
2018-06-14T16:34:25.588Z,2.20
2018-06-14T16:36:29.097Z,1.92
2018-06-14T16:38:32.647Z,2.20
2018-06-14T16:40:36.255Z,2.22
2018-06-14T16:42:39.757Z,1.90
2018-06-14T16:44:43.275Z,2.00
2018-06-14T16:46:46.783Z,2.33
2018-06-14T16:48:50.288Z,2.55
2018-06-14T16:50:53.868Z,2.35
2018-06-14T16:52:57.354Z,1.92
2018-06-14T16:55:00.924Z,2.27
2018-06-14T16:57:04.489Z,2.03
2018-06-14T16:59:07.968Z,2.15
2018-06-14T17:01:11.560Z,2.43
2018-06-14T17:03:15.129Z,2.10
2018-06-14T17:05:18.823Z,2.40
2018-06-14T17:07:22.367Z,2.07
2018-06-14T17:09:25.950Z,2.40
2018-06-14T17:11:29.532Z,2.20
2018-06-14T17:13:33.166Z,2.00
2018-06-14T17:15:36.685Z,2.00
2018-06-14T17:17:40.241Z,1.90
2018-06-14T17:19:43.694Z,2.00
2018-06-14T17:21:47.224Z,2.70
2018-06-14T17:23:50.999Z,2.33
2018-06-14T17:25:54.740Z,2.40
2018-06-14T17:27:58.299Z,2.00
2018-06-14T17:30:01.879Z,1.90
2018-06-14T17:32:05.356Z,1.90
2018-06-14T17:34:10.255Z,2.40
2018-06-14T17:36:13.859Z,2.50
2018-06-14T17:38:17.335Z,2.10
2018-06-14T17:40:20.850Z,2.27
2018-06-14T17:42:24.371Z,2.43
2018-06-14T17:44:28.137Z,3.23
2018-06-14T17:46:31.727Z,2.50
2018-06-14T17:48:35.227Z,2.50
2018-06-14T17:50:38.783Z,2.80
2018-06-14T17:52:42.307Z,2.60
2018-06-14T17:54:46.108Z,2.20
2018-06-14T17:56:49.690Z,2.63
2018-06-14T17:58:53.486Z,2.70
2018-06-14T18:00:57.103Z,2.87
2018-06-14T18:03:00.628Z,3.70
2018-06-14T18:05:04.811Z,3.17
2018-06-14T18:07:07.698Z,3.90
2018-06-14T18:09:11.274Z,3.20
2018-06-14T18:11:14.815Z,3.00
2018-06-14T18:13:20.109Z,2.70
2018-06-14T18:15:23.653Z,2.70
2018-06-14T18:17:27.331Z,3.83
2018-06-14T18:19:30.873Z,3.67
2018-06-14T18:21:34.529Z,3.60
2018-06-14T18:23:38.324Z,4.13
2018-06-14T18:25:43.091Z,4.00
2018-06-14T18:27:46.665Z,3.60
2018-06-14T18:29:50.232Z,2.80
2018-06-14T18:31:53.755Z,2.37
2018-06-14T18:33:57.298Z,2.50
2018-06-14T18:36:00.878Z,2.93
2018-06-14T18:38:04.529Z,2.90
2018-06-14T18:40:07.958Z,2.90
2018-06-14T18:42:11.620Z,3.20
2018-06-14T18:44:15.342Z,3.67
2018-06-14T18:46:18.929Z,4.87
2018-06-14T18:48:22.421Z,3.87
2018-06-14T18:50:25.971Z,4.67
2018-06-14T18:52:29.503Z,3.63
2018-06-14T18:54:33.022Z,3.77
2018-06-14T18:56:36.533Z,3.47
2018-06-14T18:58:40.062Z,3.60
2018-06-14T19:00:43.636Z,2.90
2018-06-14T19:02:47.163Z,3.20
2018-06-14T19:04:50.727Z,4.00
2018-06-14T19:06:55.565Z,4.80
2018-06-14T19:08:59.095Z,5.27
2018-06-14T19:11:02.671Z,5.70
2018-06-14T19:13:06.216Z,5.97
2018-06-14T19:15:09.747Z,6.63
2018-06-14T19:17:13.441Z,4.87
2018-06-14T19:19:16.879Z,5.00
2018-06-14T19:21:20.653Z,4.70
2018-06-14T19:23:24.216Z,4.53
2018-06-14T19:25:27.747Z,4.93
2018-06-14T19:27:31.299Z,4.10
2018-06-14T19:29:34.808Z,3.87
2018-06-14T19:31:38.326Z,2.90
2018-06-14T19:33:41.977Z,3.23
2018-06-14T19:35:45.730Z,4.20
2018-06-14T19:37:49.311Z,3.90
2018-06-14T19:39:52.887Z,3.63
2018-06-14T19:41:56.515Z,3.70
2018-06-14T19:44:00.092Z,3.60
2018-06-14T19:46:04.235Z,3.50
2018-06-14T19:48:07.775Z,2.87
2018-06-14T19:50:11.461Z,3.47
2018-06-14T19:52:15.090Z,2.43
2018-06-14T19:54:18.590Z,2.57
2018-06-14T19:56:22.084Z,2.53
2018-06-14T19:58:26.565Z,2.73
2018-06-14T20:00:30.162Z,2.40
2018-06-14T20:02:33.702Z,2.60
2018-06-14T20:04:37.292Z,2.20
2018-06-14T20:06:40.793Z,2.60
2018-06-14T20:08:44.364Z,3.43
2018-06-14T20:10:48.100Z,2.70
2018-06-14T20:12:51.692Z,2.83
2018-06-14T20:14:55.268Z,2.57
2018-06-14T20:16:58.784Z,2.20
2018-06-14T20:19:02.508Z,2.77
2018-06-14T20:21:06.106Z,2.40
2018-06-14T20:23:09.618Z,2.90
2018-06-14T20:25:13.265Z,3.20
2018-06-14T20:27:16.781Z,3.10
2018-06-14T20:29:20.345Z,3.47
2018-06-14T20:31:24.006Z,2.70
2018-06-14T20:33:27.746Z,3.20
2018-06-14T20:35:31.237Z,3.50
2018-06-14T20:37:34.796Z,3.07
2018-06-14T20:39:38.350Z,3.47
2018-06-14T20:41:42.024Z,3.40
2018-06-14T20:43:45.229Z,3.23
2018-06-14T20:45:48.703Z,3.03
2018-06-14T20:47:52.260Z,2.70
2018-06-14T20:49:55.784Z,2.30
2018-06-14T20:51:59.380Z,2.67
2018-06-14T20:54:03.005Z,3.17
2018-06-14T20:56:06.528Z,2.40
2018-06-14T20:58:10.119Z,2.70
2018-06-14T21:00:13.772Z,2.40
2018-06-14T21:02:17.306Z,2.53
2018-06-14T21:04:20.848Z,2.77
2018-06-14T21:06:24.653Z,2.50
2018-06-14T21:08:28.282Z,2.33
2018-06-14T21:10:32.391Z,2.67
2018-06-14T21:12:35.927Z,2.90
2018-06-14T21:14:39.484Z,2.53
2018-06-14T21:16:43.011Z,2.60
2018-06-14T21:18:48.587Z,2.67
2018-06-14T21:20:52.133Z,2.73
2018-06-14T21:22:55.623Z,3.00
2018-06-14T21:24:59.131Z,2.70
2018-06-14T21:27:02.639Z,2.60
2018-06-14T21:29:05.934Z,2.50
2018-06-14T21:31:09.486Z,3.20
2018-06-14T21:33:13.067Z,2.60
2018-06-14T21:35:16.826Z,2.90
2018-06-14T21:37:20.338Z,2.87
2018-06-14T21:39:23.895Z,2.73
2018-06-14T21:41:27.413Z,3.00
2018-06-14T21:43:30.903Z,2.77
2018-06-14T21:45:34.452Z,3.23
2018-06-14T21:47:37.976Z,2.97
2018-06-14T21:49:41.631Z,3.10
2018-06-14T21:51:45.150Z,3.10
2018-06-14T21:53:48.635Z,3.40
2018-06-14T21:55:52.137Z,3.37
2018-06-14T21:57:55.670Z,3.17
2018-06-14T22:00:00.252Z,3.07
2018-06-14T22:02:03.835Z,3.10
2018-06-14T22:04:07.404Z,3.43
2018-06-14T22:06:10.956Z,3.37
2018-06-14T22:08:14.485Z,3.00
2018-06-14T22:10:18.028Z,3.10
2018-06-14T22:12:21.526Z,3.33
2018-06-14T22:14:25.059Z,3.50
2018-06-14T22:16:28.593Z,4.50
2018-06-14T22:18:32.158Z,3.60
2018-06-14T22:20:35.711Z,3.47
2018-06-14T22:22:39.273Z,3.53
2018-06-14T22:24:42.801Z,3.50
2018-06-14T22:26:46.447Z,3.37
2018-06-14T22:28:50.139Z,3.13
2018-06-14T22:30:53.636Z,3.30
2018-06-14T22:33:08.321Z,3.13
2018-06-14T22:35:17.042Z,3.30
2018-06-14T22:37:20.559Z,3.00
2018-06-14T22:39:24.051Z,3.50
2018-06-14T22:41:27.572Z,2.87
2018-06-14T22:43:31.133Z,2.73
2018-06-14T22:45:35.645Z,2.80
2018-06-14T22:47:39.197Z,3.00
2018-06-14T22:49:42.695Z,3.17
2018-06-14T22:52:57.911Z,2.97
2018-06-14T22:55:01.564Z,3.57
2018-06-14T22:57:05.270Z,3.10
2018-06-14T22:59:08.889Z,3.20
2018-06-14T23:01:50.982Z,3.23
2018-06-14T23:03:54.483Z,3.40
2018-06-14T23:05:58.038Z,3.80
2018-06-14T23:08:01.550Z,3.97
2018-06-14T23:10:18.843Z,3.50
2018-06-14T23:12:22.345Z,3.63
2018-06-14T23:14:25.806Z,3.57
2018-06-14T23:16:29.421Z,3.37
2018-06-14T23:18:32.937Z,3.40
2018-06-14T23:20:36.846Z,3.70
2018-06-14T23:22:40.348Z,3.20
2018-06-14T23:24:43.849Z,2.83
2018-06-14T23:26:47.454Z,3.50
2018-06-14T23:28:50.975Z,3.23
2018-06-14T23:30:54.536Z,3.07
2018-06-14T23:32:58.057Z,3.00
2018-06-14T23:35:01.608Z,3.63
2018-06-14T23:37:05.947Z,2.93
2018-06-14T23:39:09.552Z,3.37
2018-06-14T23:41:13.091Z,3.40
2018-06-14T23:43:16.259Z,3.33
2018-06-14T23:45:19.810Z,3.50
2018-06-14T23:47:23.453Z,3.80
2018-06-14T23:49:26.653Z,3.60
2018-06-14T23:51:29.810Z,3.73
2018-06-14T23:53:33.307Z,3.27
2018-06-14T23:55:36.921Z,3.47
2018-06-14T23:57:40.450Z,3.53
2018-06-14T23:59:44.071Z,3.23
